Terminal Aerodrome Forecast
Issued by NWS Twin Cities, MN

Home | Current Version | Previous Version | Text Only | Print | Product List | Glossary Off
Versions: 1 2 3 4 5 6 7 8 9 10 11 12 13 14 15 16 17 18 19 20

000
FTUS43 KMPX 291700
TAFEAU
TAF
KEAU 291738Z 2918/3018 31011KT P6SM SCT050
      TEMPO 2920/2924 6SM -RA SCT025 BKN040
     FM300100 30004KT P6SM SCT080
     FM301500 32006KT P6SM SCT050=

USA.gov is the U.S. government's official web portal to all federal, state and local government web resources and services.